sensor_id;sensor_type;location;lat;lon;timestamp;pressure;altitude;pressure_sealevel;temperature;humidity
50384;BME280;36301;48.310;12.786;2023-07-24T03:01:12;95637.47;;;17.42;93.17
50384;BME280;36301;48.310;12.786;2023-07-24T03:03:41;95641.66;;;17.43;93.74
50384;BME280;36301;48.310;12.786;2023-07-24T03:06:07;95632.88;;;17.42;92.32
50384;BME280;36301;48.310;12.786;2023-07-24T03:08:34;95643.84;;;17.48;92.66
50384;BME280;36301;48.310;12.786;2023-07-24T03:11:04;95645.25;;;17.52;92.64
50384;BME280;36301;48.310;12.786;2023-07-24T03:13:31;95656.13;;;17.61;92.33
50384;BME280;36301;48.310;12.786;2023-07-24T03:15:58;95646.69;;;17.57;92.05
50384;BME280;36301;48.310;12.786;2023-07-24T03:18:25;95651.88;;;17.64;92.59
50384;BME280;36301;48.310;12.786;2023-07-24T03:20:52;95657.72;;;17.43;94.32
50384;BME280;36301;48.310;12.786;2023-07-24T03:23:18;95647.56;;;17.18;97.29
50384;BME280;36301;48.310;12.786;2023-07-24T03:25:45;95653.94;;;17.24;95.74
50384;BME280;36301;48.310;12.786;2023-07-24T03:28:11;95664.97;;;17.26;96.64
50384;BME280;36301;48.310;12.786;2023-07-24T03:30:38;95652.25;;;17.14;97.20
50384;BME280;36301;48.310;12.786;2023-07-24T03:33:04;95655.84;;;17.23;95.28
50384;BME280;36301;48.310;12.786;2023-07-24T03:35:32;95663.25;;;17.35;96.14
50384;BME280;36301;48.310;12.786;2023-07-24T03:37:59;95655.28;;;17.32;95.31
50384;BME280;36301;48.310;12.786;2023-07-24T03:40:26;95662.72;;;17.24;97.12
50384;BME280;36301;48.310;12.786;2023-07-24T03:42:52;95663.22;;;17.19;96.15
50384;BME280;36301;48.310;12.786;2023-07-24T03:45:19;95655.44;;;17.25;95.82
50384;BME280;36301;48.310;12.786;2023-07-24T03:47:45;95642.47;;;17.23;96.84
50384;BME280;36301;48.310;12.786;2023-07-24T03:50:12;95642.47;;;17.23;96.81
50384;BME280;36301;48.310;12.786;2023-07-24T03:52:38;95637.53;;;17.22;96.75
50384;BME280;36301;48.310;12.786;2023-07-24T03:55:05;95640.03;;;17.12;97.70
50384;BME280;36301;48.310;12.786;2023-07-24T03:57:32;95641.03;;;17.02;98.08
50384;BME280;36301;48.310;12.786;2023-07-24T03:59:58;95635.72;;;17.19;96.02
50384;BME280;36301;48.310;12.786;2023-07-24T04:02:25;95638.06;;;17.33;95.57
50384;BME280;36301;48.310;12.786;2023-07-24T04:04:51;95650.94;;;17.38;95.70
50384;BME280;36301;48.310;12.786;2023-07-24T04:07:18;95643.59;;;17.42;92.92
50384;BME280;36301;48.310;12.786;2023-07-24T04:09:44;95664.31;;;17.38;94.38
50384;BME280;36301;48.310;12.786;2023-07-24T04:12:11;95668.16;;;17.37;95.71
50384;BME280;36301;48.310;12.786;2023-07-24T04:14:37;95688.06;;;17.36;95.84
50384;BME280;36301;48.310;12.786;2023-07-24T04:17:04;95751.50;;;17.19;100.00
50384;BME280;36301;48.310;12.786;2023-07-24T04:19:32;95844.28;;;17.22;97.64
50384;BME280;36301;48.310;12.786;2023-07-24T04:21:59;95924.03;;;17.31;95.66
50384;BME280;36301;48.310;12.786;2023-07-24T04:24:25;95903.53;;;17.44;95.76
50384;BME280;36301;48.310;12.786;2023-07-24T04:26:52;95880.69;;;17.59;94.94
50384;BME280;36301;48.310;12.786;2023-07-24T04:29:19;95879.72;;;17.70;95.14
50384;BME280;36301;48.310;12.786;2023-07-24T04:31:49;95816.94;;;17.34;95.94
50384;BME280;36301;48.310;12.786;2023-07-24T04:34:16;95864.19;;;17.61;95.58
50384;BME280;36301;48.310;12.786;2023-07-24T04:36:43;95857.13;;;17.71;95.26
50384;BME280;36301;48.310;12.786;2023-07-24T04:39:10;95823.81;;;17.72;94.42
50384;BME280;36301;48.310;12.786;2023-07-24T04:41:36;95784.81;;;17.71;95.38
50384;BME280;36301;48.310;12.786;2023-07-24T04:44:03;95740.31;;;17.60;97.31
50384;BME280;36301;48.310;12.786;2023-07-24T04:46:29;95705.88;;;17.43;99.98
50384;BME280;36301;48.310;12.786;2023-07-24T04:48:56;95694.63;;;17.51;99.67
50384;BME280;36301;48.310;12.786;2023-07-24T04:51:23;95672.88;;;17.49;100.00
50384;BME280;36301;48.310;12.786;2023-07-24T04:53:49;95619.81;;;17.11;100.00
50384;BME280;36301;48.310;12.786;2023-07-24T04:56:16;95653.72;;;17.51;100.00
50384;BME280;36301;48.310;12.786;2023-07-24T04:58:42;95642.84;;;17.58;100.00
50384;BME280;36301;48.310;12.786;2023-07-24T05:01:09;95651.72;;;17.71;100.00
50384;BME280;36301;48.310;12.786;2023-07-24T05:03:35;95648.47;;;17.80;100.00
50384;BME280;36301;48.310;12.786;2023-07-24T05:06:02;95622.44;;;17.80;99.00
50384;BME280;36301;48.310;12.786;2023-07-24T05:08:29;95600.41;;;17.89;100.00
50384;BME280;36301;48.310;12.786;2023-07-24T05:10:58;95592.38;;;17.89;100.00
50384;BME280;36301;48.310;12.786;2023-07-24T05:13:26;95587.22;;;17.82;100.00
50384;BME280;36301;48.310;12.786;2023-07-24T05:15:53;95577.25;;;17.82;100.00
50384;BME280;36301;48.310;12.786;2023-07-24T05:18:19;95578.91;;;17.93;100.00
50384;BME280;36301;48.310;12.786;2023-07-24T05:20:47;95583.19;;;17.90;100.00
50384;BME280;36301;48.310;12.786;2023-07-24T05:23:14;95571.72;;;17.89;100.00
50384;BME280;36301;48.310;12.786;2023-07-24T05:26:10;95588.66;;;17.99;100.00
50384;BME280;36301;48.310;12.786;2023-07-24T05:28:37;95579.56;;;17.97;100.00
50384;BME280;36301;48.310;12.786;2023-07-24T05:31:04;95564.91;;;18.01;100.00
50384;BME280;36301;48.310;12.786;2023-07-24T05:33:31;95588.00;;;18.24;100.00
50384;BME280;36301;48.310;12.786;2023-07-24T05:36:03;95599.75;;;18.43;100.00
50384;BME280;36301;48.310;12.786;2023-07-24T05:38:30;95604.03;;;18.40;100.00
50384;BME280;36301;48.310;12.786;2023-07-24T05:41:00;95603.41;;;18.49;99.05
50384;BME280;36301;48.310;12.786;2023-07-24T05:43:29;95617.91;;;19.06;96.49
50384;BME280;36301;48.310;12.786;2023-07-24T05:45:57;95622.09;;;20.28;88.84
50384;BME280;36301;48.310;12.786;2023-07-24T05:48:24;95625.84;;;20.52;85.43
50384;BME280;36301;48.310;12.786;2023-07-24T05:50:51;95616.91;;;21.48;80.18
50384;BME280;36301;48.310;12.786;2023-07-24T05:53:18;95629.31;;;21.46;78.83
50384;BME280;36301;48.310;12.786;2023-07-24T05:55:45;95634.91;;;20.67;83.11
50384;BME280;36301;48.310;12.786;2023-07-24T05:58:12;95638.25;;;20.50;83.77
50384;BME280;36301;48.310;12.786;2023-07-24T06:00:38;95627.50;;;20.50;85.87
50384;BME280;36301;48.310;12.786;2023-07-24T06:03:05;95634.91;;;20.89;84.80
50384;BME280;36301;48.310;12.786;2023-07-24T06:05:34;95639.19;;;20.56;84.98
50384;BME280;36301;48.310;12.786;2023-07-24T06:08:00;95640.44;;;20.64;85.69
50384;BME280;36301;48.310;12.786;2023-07-24T06:10:27;95650.63;;;20.47;85.50
50384;BME280;36301;48.310;12.786;2023-07-24T06:12:53;95644.19;;;21.29;82.36
50384;BME280;36301;48.310;12.786;2023-07-24T06:15:20;95626.22;;;22.85;69.89
50384;BME280;36301;48.310;12.786;2023-07-24T06:17:46;95623.22;;;23.01;67.68
50384;BME280;36301;48.310;12.786;2023-07-24T06:20:13;95629.81;;;23.91;64.79
50384;BME280;36301;48.310;12.786;2023-07-24T06:22:40;95632.25;;;24.81;62.21
50384;BME280;36301;48.310;12.786;2023-07-24T06:25:08;95635.06;;;26.07;57.43
50384;BME280;36301;48.310;12.786;2023-07-24T06:27:43;95632.16;;;25.05;56.83
50384;BME280;36301;48.310;12.786;2023-07-24T06:30:09;95632.91;;;25.91;54.74
50384;BME280;36301;48.310;12.786;2023-07-24T06:32:41;95635.31;;;25.18;56.52
50384;BME280;36301;48.310;12.786;2023-07-24T06:35:08;95625.13;;;26.45;52.91
50384;BME280;36301;48.310;12.786;2023-07-24T06:37:35;95613.00;;;27.24;50.95
50384;BME280;36301;48.310;12.786;2023-07-24T06:40:01;95619.72;;;25.83;51.63
50384;BME280;36301;48.310;12.786;2023-07-24T06:42:28;95610.06;;;25.62;54.18
50384;BME280;36301;48.310;12.786;2023-07-24T06:44:54;95590.31;;;25.76;55.17
50384;BME280;36301;48.310;12.786;2023-07-24T06:47:21;95600.09;;;25.18;54.17
50384;BME280;36301;48.310;12.786;2023-07-24T06:49:48;95599.88;;;25.92;51.64
50384;BME280;36301;48.310;12.786;2023-07-24T06:52:14;95595.28;;;27.02;49.80
50384;BME280;36301;48.310;12.786;2023-07-24T06:54:41;95607.25;;;28.13;47.84
50384;BME280;36301;48.310;12.786;2023-07-24T06:57:07;95599.53;;;29.05;44.63
50384;BME280;36301;48.310;12.786;2023-07-24T06:59:34;95603.72;;;27.84;45.51
50384;BME280;36301;48.310;12.786;2023-07-24T07:02:01;95605.72;;;29.05;44.43
50384;BME280;36301;48.310;12.786;2023-07-24T07:04:27;95577.72;;;29.05;43.68
50384;BME280;36301;48.310;12.786;2023-07-24T07:06:54;95571.78;;;27.36;48.30
50384;BME280;36301;48.310;12.786;2023-07-24T07:09:20;95566.47;;;26.84;48.82
50384;BME280;36301;48.310;12.786;2023-07-24T07:11:47;95564.56;;;26.59;49.38
50384;BME280;36301;48.310;12.786;2023-07-24T07:14:14;95555.22;;;26.13;51.91
50384;BME280;36301;48.310;12.786;2023-07-24T07:16:40;95567.63;;;26.20;52.79
50384;BME280;36301;48.310;12.786;2023-07-24T07:19:07;95550.75;;;27.31;49.79
50384;BME280;36301;48.310;12.786;2023-07-24T07:21:35;95553.81;;;27.50;48.70
50384;BME280;36301;48.310;12.786;2023-07-24T07:24:02;95554.63;;;27.67;48.19
50384;BME280;36301;48.310;12.786;2023-07-24T07:26:29;95556.59;;;28.38;46.63
50384;BME280;36301;48.310;12.786;2023-07-24T07:28:57;95554.75;;;27.96;48.89
50384;BME280;36301;48.310;12.786;2023-07-24T07:31:25;95550.78;;;27.85;49.48
50384;BME280;36301;48.310;12.786;2023-07-24T07:33:53;95545.94;;;29.35;46.20
50384;BME280;36301;48.310;12.786;2023-07-24T07:36:19;95542.72;;;27.54;47.60
50384;BME280;36301;48.310;12.786;2023-07-24T07:38:49;95544.81;;;27.81;47.38
50384;BME280;36301;48.310;12.786;2023-07-24T07:41:17;95551.06;;;27.99;48.27
50384;BME280;36301;48.310;12.786;2023-07-24T07:43:44;95551.81;;;27.93;49.45
50384;BME280;36301;48.310;12.786;2023-07-24T07:46:11;95535.25;;;27.06;50.42
50384;BME280;36301;48.310;12.786;2023-07-24T07:48:38;95536.50;;;26.42;53.32
50384;BME280;36301;48.310;12.786;2023-07-24T07:51:05;95531.31;;;25.92;55.57
50384;BME280;36301;48.310;12.786;2023-07-24T07:53:32;95522.44;;;25.71;56.65
50384;BME280;36301;48.310;12.786;2023-07-24T07:55:58;95520.06;;;25.58;57.53
50384;BME280;36301;48.310;12.786;2023-07-24T07:58:29;95519.06;;;26.22;55.86
50384;BME280;36301;48.310;12.786;2023-07-24T08:00:55;95530.00;;;27.28;50.55
50384;BME280;36301;48.310;12.786;2023-07-24T08:03:24;95538.06;;;28.53;48.33
50384;BME280;36301;48.310;12.786;2023-07-24T08:05:51;95537.03;;;29.18;46.52
50384;BME280;36301;48.310;12.786;2023-07-24T08:08:17;95539.72;;;29.29;45.95
50384;BME280;36301;48.310;12.786;2023-07-24T08:10:44;95540.28;;;28.38;47.79
50384;BME280;36301;48.310;12.786;2023-07-24T08:13:10;95543.81;;;27.25;50.12
50384;BME280;36301;48.310;12.786;2023-07-24T08:15:37;95548.09;;;26.68;52.55
50384;BME280;36301;48.310;12.786;2023-07-24T08:18:05;95548.56;;;27.35;50.99
50384;BME280;36301;48.310;12.786;2023-07-24T08:20:35;95551.59;;;28.14;48.41
50384;BME280;36301;48.310;12.786;2023-07-24T08:23:02;95541.28;;;28.35;48.28
50384;BME280;36301;48.310;12.786;2023-07-24T08:25:29;95550.00;;;27.74;49.50
50384;BME280;36301;48.310;12.786;2023-07-24T08:27:56;95549.22;;;27.19;52.50
50384;BME280;36301;48.310;12.786;2023-07-24T08:30:31;95557.31;;;27.08;52.01
50384;BME280;36301;48.310;12.786;2023-07-24T08:32:58;95561.38;;;26.40;54.36
50384;BME280;36301;48.310;12.786;2023-07-24T08:35:26;95575.16;;;26.57;54.14
50384;BME280;36301;48.310;12.786;2023-07-24T08:37:52;95581.63;;;26.39;54.31
50384;BME280;36301;48.310;12.786;2023-07-24T08:40:19;95598.91;;;25.95;55.68
50384;BME280;36301;48.310;12.786;2023-07-24T08:42:49;95626.53;;;25.58;57.79
50384;BME280;36301;48.310;12.786;2023-07-24T08:45:16;95656.22;;;25.32;58.70
50384;BME280;36301;48.310;12.786;2023-07-24T08:47:44;95667.81;;;24.89;59.65
50384;BME280;36301;48.310;12.786;2023-07-24T08:50:11;95678.13;;;24.46;61.09
50384;BME280;36301;48.310;12.786;2023-07-24T08:52:39;95709.56;;;24.19;62.53
50384;BME280;36301;48.310;12.786;2023-07-24T08:55:06;95705.69;;;23.87;62.66
50384;BME280;36301;48.310;12.786;2023-07-24T08:57:33;95716.91;;;23.62;65.83
50384;BME280;36301;48.310;12.786;2023-07-24T08:59:59;95699.50;;;23.11;73.92
50384;BME280;36301;48.310;12.786;2023-07-24T09:02:34;95712.59;;;22.94;74.23
50384;BME280;36301;48.310;12.786;2023-07-24T09:05:02;95703.47;;;22.92;74.12
50384;BME280;36301;48.310;12.786;2023-07-24T09:07:30;95698.50;;;23.42;74.00
50384;BME280;36301;48.310;12.786;2023-07-24T09:09:56;95712.56;;;24.21;68.84
50384;BME280;36301;48.310;12.786;2023-07-24T09:12:23;95707.59;;;24.97;65.04
50384;BME280;36301;48.310;12.786;2023-07-24T09:15:01;95701.69;;;25.58;62.20
50384;BME280;36301;48.310;12.786;2023-07-24T09:17:29;95698.22;;;25.57;61.15
50384;BME280;36301;48.310;12.786;2023-07-24T09:19:56;95700.06;;;25.31;62.54
50384;BME280;36301;48.310;12.786;2023-07-24T09:22:24;95687.91;;;25.26;60.78
50384;BME280;36301;48.310;12.786;2023-07-24T09:24:55;95685.53;;;24.60;62.86
50384;BME280;36301;48.310;12.786;2023-07-24T09:27:27;95685.44;;;24.30;64.65
50384;BME280;36301;48.310;12.786;2023-07-24T09:29:55;95662.44;;;23.87;64.94
50384;BME280;36301;48.310;12.786;2023-07-24T09:32:24;95654.81;;;23.52;66.36
50384;BME280;36301;48.310;12.786;2023-07-24T09:34:51;95641.16;;;23.47;66.98
50384;BME280;36301;48.310;12.786;2023-07-24T09:37:27;95639.44;;;23.25;67.81
50384;BME280;36301;48.310;12.786;2023-07-24T09:39:54;95644.31;;;23.12;68.47
50384;BME280;36301;48.310;12.786;2023-07-24T09:42:40;95641.06;;;22.99;67.88
50384;BME280;36301;48.310;12.786;2023-07-24T09:45:27;95633.88;;;22.87;69.64
50384;BME280;36301;48.310;12.786;2023-07-24T09:47:54;95628.91;;;22.94;68.21
50384;BME280;36301;48.310;12.786;2023-07-24T09:50:33;95623.78;;;23.05;67.74
50384;BME280;36301;48.310;12.786;2023-07-24T09:53:00;95617.84;;;22.92;68.65
50384;BME280;36301;48.310;12.786;2023-07-24T09:55:30;95621.13;;;22.96;68.23
50384;BME280;36301;48.310;12.786;2023-07-24T09:58:00;95618.72;;;22.98;68.07
50384;BME280;36301;48.310;12.786;2023-07-24T10:00:27;95612.41;;;23.01;68.01
50384;BME280;36301;48.310;12.786;2023-07-24T10:02:55;95604.03;;;22.90;67.30
50384;BME280;36301;48.310;12.786;2023-07-24T10:05:22;95602.03;;;23.00;65.25
50384;BME280;36301;48.310;12.786;2023-07-24T10:07:49;95610.16;;;23.00;65.68
50384;BME280;36301;48.310;12.786;2023-07-24T10:10:17;95603.53;;;23.01;62.53
50384;BME280;36301;48.310;12.786;2023-07-24T10:12:43;95587.97;;;22.87;63.33
50384;BME280;36301;48.310;12.786;2023-07-24T10:15:11;95578.97;;;22.90;64.36
50384;BME280;36301;48.310;12.786;2023-07-24T10:17:39;95581.53;;;22.93;65.48
50384;BME280;36301;48.310;12.786;2023-07-24T10:20:08;95577.50;;;22.89;63.42
50384;BME280;36301;48.310;12.786;2023-07-24T10:22:35;95572.41;;;22.82;62.94
50384;BME280;36301;48.310;12.786;2023-07-24T10:25:04;95570.75;;;22.75;63.17
50384;BME280;36301;48.310;12.786;2023-07-24T10:27:35;95562.63;;;22.84;62.53
50384;BME280;36301;48.310;12.786;2023-07-24T10:30:04;95554.81;;;22.95;62.84
50384;BME280;36301;48.310;12.786;2023-07-24T10:32:48;95559.25;;;23.17;62.72
50384;BME280;36301;48.310;12.786;2023-07-24T10:35:20;95550.91;;;23.29;59.91
50384;BME280;36301;48.310;12.786;2023-07-24T10:37:58;95553.00;;;23.83;57.93
50384;BME280;36301;48.310;12.786;2023-07-24T10:40:25;95544.53;;;24.43;56.47
50384;BME280;36301;48.310;12.786;2023-07-24T10:43:09;95543.63;;;24.81;55.22
50384;BME280;36301;48.310;12.786;2023-07-24T10:45:50;95549.63;;;24.85;54.04
50384;BME280;36301;48.310;12.786;2023-07-24T10:48:18;95548.81;;;24.65;56.11
50384;BME280;36301;48.310;12.786;2023-07-24T10:50:46;95546.31;;;24.22;58.18
50384;BME280;36301;48.310;12.786;2023-07-24T10:53:19;95545.38;;;23.96;58.39
50384;BME280;36301;48.310;12.786;2023-07-24T10:55:47;95539.13;;;23.90;57.48
50384;BME280;36301;48.310;12.786;2023-07-24T10:58:14;95531.81;;;23.81;58.61
50384;BME280;36301;48.310;12.786;2023-07-24T11:00:44;95531.13;;;23.71;59.35
50384;BME280;36301;48.310;12.786;2023-07-24T11:03:12;95528.91;;;23.70;58.32
50384;BME280;36301;48.310;12.786;2023-07-24T11:05:43;95521.97;;;23.93;57.98
50384;BME280;36301;48.310;12.786;2023-07-24T11:08:18;95524.38;;;23.91;59.74
50384;BME280;36301;48.310;12.786;2023-07-24T11:10:52;95515.16;;;23.83;57.59
50384;BME280;36301;48.310;12.786;2023-07-24T11:13:21;95501.28;;;24.19;57.54
50384;BME280;36301;48.310;12.786;2023-07-24T11:15:49;95503.44;;;24.59;56.15
50384;BME280;36301;48.310;12.786;2023-07-24T11:18:16;95486.38;;;25.24;54.19
50384;BME280;36301;48.310;12.786;2023-07-24T11:20:45;95488.56;;;25.20;54.97
50384;BME280;36301;48.310;12.786;2023-07-24T11:23:12;95491.91;;;25.50;53.50
50384;BME280;36301;48.310;12.786;2023-07-24T11:25:39;95482.13;;;25.38;51.96
50384;BME280;36301;48.310;12.786;2023-07-24T11:28:07;95481.19;;;25.41;53.60
50384;BME280;36301;48.310;12.786;2023-07-24T11:30:35;95490.53;;;26.06;53.75
50384;BME280;36301;48.310;12.786;2023-07-24T11:33:05;95497.66;;;26.04;54.26
50384;BME280;36301;48.310;12.786;2023-07-24T11:35:33;95496.50;;;26.10;52.93
50384;BME280;36301;48.310;12.786;2023-07-24T11:38:02;95497.06;;;25.94;52.72
50384;BME280;36301;48.310;12.786;2023-07-24T11:40:40;95491.88;;;25.70;52.37
50384;BME280;36301;48.310;12.786;2023-07-24T11:43:18;95479.09;;;25.30;51.59
50384;BME280;36301;48.310;12.786;2023-07-24T11:45:46;95470.66;;;25.07;50.57
50384;BME280;36301;48.310;12.786;2023-07-24T11:48:15;95454.09;;;25.41;51.86
50384;BME280;36301;48.310;12.786;2023-07-24T11:50:50;95459.69;;;26.04;50.12
50384;BME280;36301;48.310;12.786;2023-07-24T11:53:28;95451.63;;;26.15;50.24
50384;BME280;36301;48.310;12.786;2023-07-24T11:55:57;95453.16;;;26.48;49.72
50384;BME280;36301;48.310;12.786;2023-07-24T11:58:29;95449.84;;;26.70;49.07
50384;BME280;36301;48.310;12.786;2023-07-24T12:00:56;95454.19;;;26.93;48.01
50384;BME280;36301;48.310;12.786;2023-07-24T12:03:27;95441.69;;;27.07;48.15
50384;BME280;36301;48.310;12.786;2023-07-24T12:05:55;95442.38;;;27.02;47.65
50384;BME280;36301;48.310;12.786;2023-07-24T12:08:34;95442.53;;;26.44;49.46
50384;BME280;36301;48.310;12.786;2023-07-24T12:11:02;95435.59;;;27.23;48.18
50384;BME280;36301;48.310;12.786;2023-07-24T12:13:29;95419.31;;;27.34;46.43
50384;BME280;36301;48.310;12.786;2023-07-24T12:15:57;95412.44;;;27.45;45.64
50384;BME280;36301;48.310;12.786;2023-07-24T12:18:24;95422.97;;;27.20;46.73
50384;BME280;36301;48.310;12.786;2023-07-24T12:20:51;95422.97;;;27.26;46.62
50384;BME280;36301;48.310;12.786;2023-07-24T12:23:17;95410.84;;;27.21;47.33
50384;BME280;36301;48.310;12.786;2023-07-24T12:25:44;95412.44;;;27.56;48.19
50384;BME280;36301;48.310;12.786;2023-07-24T12:28:10;95387.31;;;28.11;45.55
50384;BME280;36301;48.310;12.786;2023-07-24T12:30:37;95384.84;;;27.91;45.51
50384;BME280;36301;48.310;12.786;2023-07-24T12:33:03;95379.63;;;27.82;46.06
50384;BME280;36301;48.310;12.786;2023-07-24T12:35:30;95374.56;;;27.30;47.11
50384;BME280;36301;48.310;12.786;2023-07-24T12:37:57;95392.88;;;27.40;47.36
50384;BME280;36301;48.310;12.786;2023-07-24T12:40:25;95393.00;;;26.60;50.38
50384;BME280;36301;48.310;12.786;2023-07-24T12:42:52;95394.00;;;26.57;48.34
50384;BME280;36301;48.310;12.786;2023-07-24T12:45:19;95402.50;;;27.30;47.41
50384;BME280;36301;48.310;12.786;2023-07-24T12:47:45;95396.44;;;27.04;48.66
50384;BME280;36301;48.310;12.786;2023-07-24T12:50:12;95405.50;;;27.38;48.63
50384;BME280;36301;48.310;12.786;2023-07-24T12:52:39;95387.78;;;27.76;46.37
50384;BME280;36301;48.310;12.786;2023-07-24T12:55:06;95384.09;;;28.13;46.56
50384;BME280;36301;48.310;12.786;2023-07-24T12:57:33;95390.72;;;27.67;47.91
50384;BME280;36301;48.310;12.786;2023-07-24T12:59:59;95391.25;;;28.16;45.65
50384;BME280;36301;48.310;12.786;2023-07-24T13:02:26;95374.19;;;28.55;45.18
50384;BME280;36301;48.310;12.786;2023-07-24T13:04:52;95371.47;;;28.10;46.53
50384;BME280;36301;48.310;12.786;2023-07-24T13:07:19;95377.91;;;27.84;46.64
50384;BME280;36301;48.310;12.786;2023-07-24T13:09:46;95384.50;;;27.50;46.79
50384;BME280;36301;48.310;12.786;2023-07-24T13:12:12;95388.91;;;27.30;47.46
50384;BME280;36301;48.310;12.786;2023-07-24T13:14:39;95423.66;;;27.09;47.49
50384;BME280;36301;48.310;12.786;2023-07-24T13:17:09;95451.47;;;26.56;48.67
50384;BME280;36301;48.310;12.786;2023-07-24T13:19:35;95476.50;;;25.82;50.02
50384;BME280;36301;48.310;12.786;2023-07-24T13:22:02;95497.56;;;25.52;51.13
50384;BME280;36301;48.310;12.786;2023-07-24T13:24:28;95502.03;;;25.14;51.94
50384;BME280;36301;48.310;12.786;2023-07-24T13:26:55;95503.53;;;25.56;52.69
50384;BME280;36301;48.310;12.786;2023-07-24T13:29:22;95510.59;;;25.48;51.74
50384;BME280;36301;48.310;12.786;2023-07-24T13:31:51;95517.22;;;25.47;54.43
50384;BME280;36301;48.310;12.786;2023-07-24T13:34:21;95535.84;;;25.04;54.63
50384;BME280;36301;48.310;12.786;2023-07-24T13:36:48;95526.94;;;24.68;56.83
50384;BME280;36301;48.310;12.786;2023-07-24T13:39:14;95522.66;;;24.47;57.66
50384;BME280;36301;48.310;12.786;2023-07-24T13:41:41;95504.66;;;24.29;56.80
50384;BME280;36301;48.310;12.786;2023-07-24T13:44:09;95528.13;;;24.23;56.70
50384;BME280;36301;48.310;12.786;2023-07-24T13:46:35;95507.34;;;24.14;56.75
50384;BME280;36301;48.310;12.786;2023-07-24T13:49:06;95489.84;;;23.71;57.46
50384;BME280;36301;48.310;12.786;2023-07-24T13:51:32;95503.78;;;23.54;59.41
50384;BME280;36301;48.310;12.786;2023-07-24T13:53:59;95501.03;;;23.40;61.05
50384;BME280;36301;48.310;12.786;2023-07-24T13:56:28;95491.31;;;23.33;62.58
50384;BME280;36301;48.310;12.786;2023-07-24T13:58:57;95492.91;;;23.16;64.57
50384;BME280;36301;48.310;12.786;2023-07-24T14:01:24;95513.78;;;22.82;68.64
50384;BME280;36301;48.310;12.786;2023-07-24T14:03:51;95526.63;;;22.45;72.45
50384;BME280;36301;48.310;12.786;2023-07-24T14:06:18;95528.19;;;21.91;76.61
50384;BME280;36301;48.310;12.786;2023-07-24T14:08:45;95525.22;;;21.70;76.81
50384;BME280;36301;48.310;12.786;2023-07-24T14:11:11;95516.81;;;21.59;75.82
50384;BME280;36301;48.310;12.786;2023-07-24T14:13:38;95501.69;;;21.34;75.66
50384;BME280;36301;48.310;12.786;2023-07-24T14:16:04;95499.91;;;21.40;75.14
50384;BME280;36301;48.310;12.786;2023-07-24T14:18:31;95530.25;;;21.32;76.17
50384;BME280;36301;48.310;12.786;2023-07-24T14:20:57;95519.72;;;21.15;77.78
50384;BME280;36301;48.310;12.786;2023-07-24T14:23:26;95490.25;;;21.12;77.54
50384;BME280;36301;48.310;12.786;2023-07-24T14:25:52;95487.97;;;21.01;78.15
50384;BME280;36301;48.310;12.786;2023-07-24T14:28:19;95473.03;;;21.00;78.81
50384;BME280;36301;48.310;12.786;2023-07-24T14:30:45;95475.59;;;21.04;78.87
50384;BME280;36301;48.310;12.786;2023-07-24T14:33:12;95480.94;;;20.94;79.57
50384;BME280;36301;48.310;12.786;2023-07-24T14:35:38;95470.94;;;20.95;79.51
50384;BME280;36301;48.310;12.786;2023-07-24T14:38:05;95476.47;;;21.01;79.82
50384;BME280;36301;48.310;12.786;2023-07-24T14:40:32;95461.09;;;21.10;80.22
50384;BME280;36301;48.310;12.786;2023-07-24T14:42:58;95441.47;;;21.01;79.46
50384;BME280;36301;48.310;12.786;2023-07-24T14:45:25;95419.66;;;20.98;80.17
50384;BME280;36301;48.310;12.786;2023-07-24T14:47:52;95416.84;;;21.20;78.88
50384;BME280;36301;48.310;12.786;2023-07-24T14:50:18;95418.97;;;21.35;79.61
50384;BME280;36301;48.310;12.786;2023-07-24T14:52:45;95418.38;;;21.40;78.82
50384;BME280;36301;48.310;12.786;2023-07-24T14:55:14;95399.06;;;21.60;78.56
50384;BME280;36301;48.310;12.786;2023-07-24T14:57:41;95410.25;;;21.76;75.84
50384;BME280;36301;48.310;12.786;2023-07-24T15:00:08;95412.72;;;22.08;74.20
50384;BME280;36301;48.310;12.786;2023-07-24T15:02:35;95430.72;;;22.44;71.69
50384;BME280;36301;48.310;12.786;2023-07-24T15:05:01;95426.81;;;22.78;70.45
50384;BME280;36301;48.310;12.786;2023-07-24T15:07:28;95430.69;;;23.10;69.61
50384;BME280;36301;48.310;12.786;2023-07-24T15:09:54;95423.63;;;23.13;69.13
50384;BME280;36301;48.310;12.786;2023-07-24T15:12:21;95426.47;;;22.85;69.41
50384;BME280;36301;48.310;12.786;2023-07-24T15:14:48;95411.41;;;23.41;66.19
50384;BME280;36301;48.310;12.786;2023-07-24T15:17:14;95412.75;;;23.61;61.94
50384;BME280;36301;48.310;12.786;2023-07-24T15:19:41;95427.53;;;23.50;62.52
50384;BME280;36301;48.310;12.786;2023-07-24T15:22:07;95438.63;;;23.38;64.05
50384;BME280;36301;48.310;12.786;2023-07-24T15:24:34;95409.25;;;23.30;65.59
50384;BME280;36301;48.310;12.786;2023-07-24T15:27:00;95427.41;;;23.30;64.50
50384;BME280;36301;48.310;12.786;2023-07-24T15:29:37;95423.69;;;23.27;64.55
50384;BME280;36301;48.310;12.786;2023-07-24T15:32:05;95425.28;;;23.34;65.68
50384;BME280;36301;48.310;12.786;2023-07-24T15:34:31;95409.75;;;23.44;65.08
50384;BME280;36301;48.310;12.786;2023-07-24T15:36:58;95407.72;;;24.27;60.57
50384;BME280;36301;48.310;12.786;2023-07-24T15:39:25;95384.41;;;24.30;62.34
50384;BME280;36301;48.310;12.786;2023-07-24T15:41:51;95398.78;;;24.36;59.85
50384;BME280;36301;48.310;12.786;2023-07-24T15:44:54;95395.03;;;24.48;59.16
50384;BME280;36301;48.310;12.786;2023-07-24T15:47:25;95402.88;;;24.31;60.33
50384;BME280;36301;48.310;12.786;2023-07-24T15:49:52;95396.88;;;24.57;59.11
50384;BME280;36301;48.310;12.786;2023-07-24T15:52:19;95400.28;;;24.37;60.01
50384;BME280;36301;48.310;12.786;2023-07-24T15:54:45;95408.28;;;24.17;62.25